Time;durP1;ratioP1;P1;durP2;ratioP2;P2;SDS_P1;SDS_P2;PMS_P1;PMS_P2;Temp;Humidity;BMP_temperature;BMP_pressure;BME280_temperature;BME280_humidity;BME280_pressure;Samples;Min_cycle;Max_cycle;Signal;HPM_P1;HPM_P2
2023/05/29 00:01:44;;;;;;;30.02;19.73;;;13.90;85.30;;;;;;5019997;28;20047;-79
2023/05/29 00:04:12;;;;;;;33.47;20.98;;;13.90;85.40;;;;;;5030689;28;20112;-80
2023/05/29 00:06:37;;;;;;;31.30;19.55;;;13.90;85.30;;;;;;5037811;28;20431;-79
2023/05/29 00:09:03;;;;;;;36.03;21.95;;;13.90;85.50;;;;;;5028003;28;20488;-78
2023/05/29 00:11:29;;;;;;;35.67;19.92;;;13.80;85.60;;;;;;5021871;28;20100;-78
2023/05/29 00:13:56;;;;;;;31.27;19.45;;;13.70;85.80;;;;;;5019448;28;20026;-78
2023/05/29 00:16:23;;;;;;;31.98;18.98;;;13.70;85.70;;;;;;5018614;28;20084;-78
2023/05/29 00:18:49;;;;;;;32.78;18.60;;;13.70;85.50;;;;;;5027802;28;20806;-79
2023/05/29 00:21:15;;;;;;;26.88;15.52;;;13.60;85.40;;;;;;5012669;28;20041;-77
2023/05/29 00:23:41;;;;;;;22.30;14.07;;;13.60;85.20;;;;;;5017247;28;20026;-78
2023/05/29 00:26:08;;;;;;;28.25;13.82;;;13.50;84.90;;;;;;5015201;28;20041;-78
2023/05/29 00:28:35;;;;;;;24.35;12.27;;;13.50;84.70;;;;;;5026297;28;20121;-79
2023/05/29 00:31:01;;;;;;;22.52;12.63;;;13.50;84.60;;;;;;5022034;28;20029;-80
2023/05/29 00:33:26;;;;;;;21.52;12.35;;;13.50;84.40;;;;;;5017330;28;20053;-79
2023/05/29 00:35:52;;;;;;;22.58;13.80;;;13.50;84.20;;;;;;5024114;28;20159;-77
2023/05/29 00:38:18;;;;;;;21.33;12.02;;;13.50;84.40;;;;;;5017482;28;20022;-78
2023/05/29 00:40:43;;;;;;;23.52;11.90;;;13.40;84.40;;;;;;5024841;28;20108;-77
2023/05/29 00:43:09;;;;;;;20.13;11.93;;;13.40;84.20;;;;;;5017884;28;20052;-79
2023/05/29 00:45:36;;;;;;;21.83;12.05;;;13.40;84.20;;;;;;5019171;28;20139;-77
2023/05/29 00:48:06;;;;;;;23.48;12.30;;;13.30;84.50;;;;;;5025038;28;20139;-78
2023/05/29 00:50:33;;;;;;;22.98;12.98;;;13.30;84.60;;;;;;5024152;28;20231;-78
2023/05/29 00:53:01;;;;;;;23.45;11.45;;;13.30;84.50;;;;;;5024197;28;20115;-78
2023/05/29 00:55:28;;;;;;;21.48;11.57;;;13.30;84.60;;;;;;5020882;28;20116;-79
2023/05/29 00:57:54;;;;;;;24.15;12.38;;;13.20;84.60;;;;;;5022347;28;20111;-78
2023/05/29 01:00:20;;;;;;;22.98;12.13;;;13.30;84.70;;;;;;5021771;28;20679;-77
2023/05/29 01:02:47;;;;;;;23.88;12.38;;;13.20;84.60;;;;;;5024272;28;20034;-77
2023/05/29 01:05:14;;;;;;;21.92;12.45;;;13.20;84.90;;;;;;5018312;28;20731;-79
2023/05/29 01:07:44;;;;;;;19.52;11.68;;;13.20;84.70;;;;;;5023323;28;20045;-77
2023/05/29 01:10:10;;;;;;;20.98;12.07;;;13.10;84.60;;;;;;5023695;28;20049;-77
2023/05/29 01:13:01;;;;;;;23.10;11.00;;;13.10;84.70;;;;;;5024397;28;20116;-81
2023/05/29 01:15:57;;;;;;;22.08;11.27;;;13.10;84.90;;;;;;5019417;28;20037;-77
2023/05/29 01:18:28;;;;;;;22.45;10.73;;;13.00;85.00;;;;;;5023762;28;20196;-78
2023/05/29 01:21:14;;;;;;;20.95;11.40;;;13.00;85.00;;;;;;5025261;28;20083;-79
2023/05/29 01:23:58;;;;;;;21.83;10.38;;;12.90;85.10;;;;;;5025035;28;20082;-77
2023/05/29 01:26:55;;;;;;;22.85;10.38;;;12.90;85.10;;;;;;5018597;28;20041;-78
2023/05/29 01:29:33;;;;;;;22.33;9.95;;;12.90;85.00;;;;;;5028491;28;20112;-77
2023/05/29 01:32:01;;;;;;;23.40;9.93;;;12.90;85.00;;;;;;5023184;28;20037;-77
2023/05/29 01:34:27;;;;;;;20.08;9.52;;;12.90;84.90;;;;;;5022659;28;20025;-77
2023/05/29 01:36:53;;;;;;;24.60;9.40;;;12.80;84.80;;;;;;5018921;28;20545;-77
2023/05/29 01:39:21;;;;;;;18.95;8.52;;;12.80;84.70;;;;;;5021205;28;20059;-79
2023/05/29 01:41:47;;;;;;;20.02;8.18;;;12.70;84.70;;;;;;5023645;28;20108;-77
2023/05/29 01:44:15;;;;;;;19.60;7.63;;;12.70;84.50;;;;;;5019636;28;20030;-78
2023/05/29 01:46:41;;;;;;;20.23;7.47;;;12.70;84.30;;;;;;5021272;28;20163;-77
2023/05/29 01:49:09;;;;;;;22.35;7.40;;;12.70;83.90;;;;;;5019791;28;20025;-78
2023/05/29 01:51:35;;;;;;;21.73;6.45;;;12.70;83.90;;;;;;5027368;28;20060;-77
2023/05/29 01:54:01;;;;;;;18.85;6.82;;;12.60;83.60;;;;;;5024255;28;20021;-78
2023/05/29 01:56:27;;;;;;;16.90;6.15;;;12.60;83.50;;;;;;5025971;28;20042;-77
2023/05/29 01:58:55;;;;;;;18.08;6.28;;;12.60;83.20;;;;;;5023694;28;20040;-76
2023/05/29 02:01:24;;;;;;;17.77;6.45;;;12.60;83.20;;;;;;5020331;28;20497;-78
2023/05/29 02:03:53;;;;;;;19.77;6.53;;;12.60;83.00;;;;;;5022242;28;20487;-78
2023/05/29 02:06:19;;;;;;;17.52;6.47;;;12.60;82.90;;;;;;5021730;28;20037;-77
2023/05/29 02:08:45;;;;;;;19.90;6.22;;;12.60;82.40;;;;;;5021228;28;20181;-76
2023/05/29 02:11:11;;;;;;;21.55;6.35;;;12.60;82.40;;;;;;5018651;28;20074;-79
2023/05/29 02:13:37;;;;;;;13.75;5.20;;;12.50;82.50;;;;;;5024482;28;20021;-77
2023/05/29 02:16:03;;;;;;;17.73;5.38;;;12.50;82.30;;;;;;5023069;28;20094;-78
2023/05/29 02:18:29;;;;;;;16.35;6.13;;;12.50;82.10;;;;;;5025553;28;20022;-77
2023/05/29 02:20:55;;;;;;;21.63;5.45;;;12.50;81.90;;;;;;5023859;28;20033;-76
2023/05/29 02:23:21;;;;;;;17.02;6.10;;;12.50;81.70;;;;;;5024539;28;20025;-77
2023/05/29 02:25:46;;;;;;;19.08;5.88;;;12.50;81.40;;;;;;5019274;28;20699;-76
2023/05/29 02:28:12;;;;;;;18.75;4.90;;;12.40;80.90;;;;;;5021858;28;20047;-79
2023/05/29 02:30:38;;;;;;;21.27;5.25;;;12.40;80.60;;;;;;5022280;28;20383;-78
2023/05/29 02:33:04;;;;;;;20.77;5.47;;;12.40;80.50;;;;;;5022844;28;20033;-80
2023/05/29 02:35:30;;;;;;;13.35;4.45;;;12.40;80.20;;;;;;5023668;28;20521;-77
2023/05/29 02:37:55;;;;;;;14.98;4.82;;;12.40;80.00;;;;;;5017731;28;20052;-80
2023/05/29 02:40:21;;;;;;;21.52;5.25;;;12.30;80.00;;;;;;5021114;28;20129;-76
2023/05/29 02:42:47;;;;;;;13.38;4.72;;;12.30;80.00;;;;;;5018093;28;20449;-77
2023/05/29 02:45:13;;;;;;;19.50;5.50;;;12.20;80.00;;;;;;5023341;28;20033;-80
2023/05/29 02:47:39;;;;;;;15.30;4.63;;;12.20;80.10;;;;;;5018536;28;20057;-79
2023/05/29 02:50:05;;;;;;;17.42;4.68;;;12.20;80.20;;;;;;5019029;28;20382;-78
2023/05/29 02:52:34;;;;;;;16.13;4.85;;;12.10;80.20;;;;;;5021801;28;20029;-77
2023/05/29 02:55:00;;;;;;;15.73;4.80;;;12.20;80.50;;;;;;5018618;28;20022;-77
2023/05/29 02:57:26;;;;;;;13.65;4.40;;;12.10;80.40;;;;;;5017926;28;20036;-77
2023/05/29 02:59:52;;;;;;;18.35;5.47;;;12.10;80.40;;;;;;5021082;28;20076;-77
2023/05/29 03:02:18;;;;;;;15.50;5.00;;;12.10;80.60;;;;;;5024525;28;20033;-79
2023/05/29 03:04:50;;;;;;;21.17;5.43;;;12.10;80.60;;;;;;5011707;28;20018;-77
2023/05/29 03:07:15;;;;;;;19.02;5.05;;;12.10;80.60;;;;;;5013366;28;20026;-78
2023/05/29 03:09:41;;;;;;;16.05;5.57;;;12.10;80.70;;;;;;5020657;28;20036;-79
2023/05/29 03:12:07;;;;;;;18.02;5.05;;;12.00;80.60;;;;;;5016703;28;20526;-77
2023/05/29 03:14:35;;;;;;;16.75;5.25;;;12.00;80.50;;;;;;5024246;28;20026;-77
2023/05/29 03:17:07;;;;;;;19.55;5.65;;;12.00;80.30;;;;;;5018658;28;20052;-77
2023/05/29 03:19:34;;;;;;;19.38;5.20;;;11.90;80.10;;;;;;5021348;28;20219;-76
2023/05/29 03:22:00;;;;;;;15.85;4.97;;;11.90;79.80;;;;;;5021104;28;20150;-75
2023/05/29 03:24:27;;;;;;;18.13;4.43;;;11.90;79.70;;;;;;5023070;28;20394;-77
2023/05/29 03:26:52;;;;;;;14.35;4.50;;;11.90;79.40;;;;;;5021410;28;20391;-76
2023/05/29 03:29:18;;;;;;;17.55;4.85;;;11.90;79.40;;;;;;5020040;28;20055;-78
2023/05/29 03:31:44;;;;;;;16.27;5.25;;;11.90;79.40;;;;;;5014446;28;20065;-76
2023/05/29 03:34:10;;;;;;;17.15;5.07;;;11.90;79.30;;;;;;5022150;28;20092;-78
2023/05/29 03:36:38;;;;;;;15.70;4.97;;;11.80;78.90;;;;;;5023299;28;20042;-76
2023/05/29 03:39:04;;;;;;;16.80;5.25;;;11.80;78.90;;;;;;5017503;28;20033;-76
2023/05/29 03:41:30;;;;;;;17.23;5.75;;;11.80;78.80;;;;;;5020701;28;20585;-77
2023/05/29 03:43:55;;;;;;;14.50;4.80;;;11.80;78.50;;;;;;5009893;28;20053;-79
2023/05/29 03:46:21;;;;;;;20.63;5.07;;;11.80;78.30;;;;;;5017024;28;20038;-78
2023/05/29 03:48:47;;;;;;;17.95;4.60;;;11.80;78.10;;;;;;5018844;28;20068;-75
2023/05/29 03:51:12;;;;;;;21.33;5.10;;;11.70;77.90;;;;;;5017335;28;20032;-76
2023/05/29 03:53:38;;;;;;;18.25;4.70;;;11.80;78.00;;;;;;5016725;28;20037;-76
2023/05/29 03:56:04;;;;;;;15.45;4.85;;;11.80;77.90;;;;;;5021805;28;20083;-79
2023/05/29 03:58:30;;;;;;;16.25;5.03;;;11.80;77.90;;;;;;5017888;28;20022;-77
2023/05/29 04:00:55;;;;;;;14.30;4.60;;;11.70;77.90;;;;;;5018228;28;20394;-76
2023/05/29 04:03:21;;;;;;;16.77;4.13;;;11.70;78.00;;;;;;5017511;28;20026;-75
2023/05/29 04:05:47;;;;;;;17.08;4.82;;;11.80;78.00;;;;;;5017476;28;20389;-78
2023/05/29 04:08:13;;;;;;;17.25;4.60;;;11.80;77.80;;;;;;5023688;28;20026;-76
2023/05/29 04:10:39;;;;;;;17.98;4.88;;;11.70;77.40;;;;;;5021860;28;20021;-78
2023/05/29 04:13:06;;;;;;;18.48;4.90;;;11.70;77.60;;;;;;5017921;28;20072;-76
2023/05/29 04:15:33;;;;;;;17.42;5.00;;;11.70;77.40;;;;;;5024664;28;20084;-78
2023/05/29 04:17:59;;;;;;;18.17;4.75;;;11.80;77.40;;;;;;5019776;28;20049;-77
2023/05/29 04:20:25;;;;;;;15.55;4.07;;;11.70;77.30;;;;;;5024594;28;20024;-76
2023/05/29 04:22:51;;;;;;;20.85;5.35;;;11.70;77.10;;;;;;5023136;28;20597;-76
2023/05/29 04:25:17;;;;;;;17.73;4.53;;;11.70;77.20;;;;;;5020650;28;20040;-76
2023/05/29 04:27:48;;;;;;;17.25;4.78;;;11.70;77.30;;;;;;5019595;28;20038;-76
2023/05/29 04:30:15;;;;;;;15.05;4.22;;;11.80;77.30;;;;;;5022940;28;20744;-77
2023/05/29 04:32:42;;;;;;;17.13;4.43;;;11.80;77.30;;;;;;5020394;28;20049;-80
2023/05/29 04:35:09;;;;;;;17.55;5.35;;;11.80;77.30;;;;;;5020819;28;20045;-76
2023/05/29 04:37:38;;;;;;;12.70;4.50;;;11.90;77.20;;;;;;5012822;28;20041;-77
2023/05/29 04:40:11;;;;;;;14.93;4.22;;;11.80;77.20;;;;;;5022578;28;20083;-76
2023/05/29 04:42:37;;;;;;;17.33;4.50;;;11.80;77.20;;;;;;5023537;28;20508;-77
2023/05/29 04:45:06;;;;;;;14.60;4.18;;;11.70;77.40;;;;;;5007449;28;20030;-77
2023/05/29 04:47:32;;;;;;;15.80;4.88;;;11.80;77.10;;;;;;5020382;28;20080;-79
2023/05/29 04:50:01;;;;;;;16.17;4.45;;;11.70;77.10;;;;;;5022898;28;20128;-77
2023/05/29 04:52:27;;;;;;;17.85;4.55;;;11.60;77.50;;;;;;5011701;28;20103;-78
2023/05/29 04:54:54;;;;;;;15.35;4.60;;;11.60;77.20;;;;;;5020993;28;20042;-77
2023/05/29 04:57:20;;;;;;;18.35;4.53;;;11.80;77.00;;;;;;5019123;28;20077;-79
2023/05/29 04:59:46;;;;;;;18.65;4.80;;;11.80;76.70;;;;;;5031608;28;20051;-78
2023/05/29 05:02:11;;;;;;;17.60;4.05;;;11.80;76.80;;;;;;5016875;28;20048;-76
2023/05/29 05:04:37;;;;;;;14.23;4.43;;;11.80;76.60;;;;;;5024476;28;20021;-77
2023/05/29 05:07:05;;;;;;;15.77;4.70;;;11.70;76.90;;;;;;5025757;28;20760;-79
2023/05/29 05:09:30;;;;;;;13.07;4.03;;;11.70;76.70;;;;;;5024514;28;20224;-76
2023/05/29 05:11:56;;;;;;;21.45;4.32;;;11.70;76.80;;;;;;5024500;28;20147;-78
2023/05/29 05:14:22;;;;;;;17.65;4.47;;;11.80;76.80;;;;;;5024888;28;20032;-76
2023/05/29 05:16:48;;;;;;;18.58;3.75;;;12.10;76.30;;;;;;5025822;28;20107;-77
2023/05/29 05:19:13;;;;;;;16.35;3.83;;;12.80;74.50;;;;;;5024840;28;20061;-77
2023/05/29 05:21:39;;;;;;;16.80;3.72;;;13.70;70.90;;;;;;5023369;28;20845;-77
2023/05/29 05:24:05;;;;;;;14.43;4.35;;;14.30;68.20;;;;;;5027832;28;20096;-78
2023/05/29 05:26:31;;;;;;;18.15;4.80;;;14.50;67.50;;;;;;5026842;28;20050;-78
2023/05/29 05:28:56;;;;;;;16.13;4.65;;;14.20;67.90;;;;;;5026314;28;20056;-78
2023/05/29 05:31:23;;;;;;;14.85;4.35;;;14.80;66.30;;;;;;5020395;28;20040;-77
2023/05/29 05:33:49;;;;;;;18.48;4.38;;;14.20;67.40;;;;;;5022412;28;20021;-77
2023/05/29 05:36:15;;;;;;;20.05;5.00;;;14.30;67.50;;;;;;5025551;28;20045;-77
2023/05/29 05:38:40;;;;;;;24.77;5.72;;;15.00;65.80;;;;;;5024516;28;20075;-77
2023/05/29 05:41:06;;;;;;;18.10;4.82;;;14.50;66.70;;;;;;5017927;28;20122;-76
2023/05/29 05:43:32;;;;;;;13.88;4.78;;;14.60;66.50;;;;;;5019538;28;20116;-76
2023/05/29 05:45:58;;;;;;;16.48;4.57;;;14.70;66.30;;;;;;5021955;28;20037;-77
2023/05/29 05:48:23;;;;;;;17.27;4.60;;;14.60;66.50;;;;;;5018750;28;20038;-78
2023/05/29 05:50:50;;;;;;;18.95;4.93;;;14.90;65.60;;;;;;5024658;28;20561;-78
2023/05/29 05:53:16;;;;;;;18.10;4.80;;;14.60;66.40;;;;;;5018958;28;20083;-78
2023/05/29 05:55:42;;;;;;;20.27;5.22;;;14.30;67.50;;;;;;5018588;28;20374;-77
2023/05/29 05:58:08;;;;;;;15.80;4.93;;;13.70;69.00;;;;;;5023079;28;20470;-79
2023/05/29 06:00:33;;;;;;;18.90;4.60;;;13.50;70.30;;;;;;5025741;28;20444;-77
2023/05/29 06:03:00;;;;;;;14.55;4.53;;;13.30;71.90;;;;;;5023951;28;20033;-78
2023/05/29 06:05:26;;;;;;;17.48;5.25;;;13.30;71.30;;;;;;5022445;28;20385;-77
2023/05/29 06:07:52;;;;;;;19.25;4.93;;;13.30;71.30;;;;;;5022732;28;20038;-80
2023/05/29 06:10:18;;;;;;;17.05;5.10;;;13.40;71.00;;;;;;5026238;28;20025;-77
2023/05/29 06:12:44;;;;;;;15.70;3.90;;;13.30;71.00;;;;;;5022731;28;20049;-77
2023/05/29 06:15:10;;;;;;;16.63;4.00;;;13.20;70.60;;;;;;5022992;28;20025;-77
2023/05/29 06:17:36;;;;;;;13.70;3.83;;;13.20;69.80;;;;;;5015401;28;20364;-75
2023/05/29 06:20:02;;;;;;;16.15;3.85;;;13.10;70.00;;;;;;5020837;28;20030;-77
2023/05/29 06:22:27;;;;;;;14.48;4.28;;;13.20;69.80;;;;;;5020494;28;20025;-76
2023/05/29 06:24:53;;;;;;;16.30;4.35;;;13.50;69.80;;;;;;5020162;28;20037;-76
2023/05/29 06:27:19;;;;;;;13.30;4.03;;;13.70;69.10;;;;;;5020765;28;20517;-77
2023/05/29 06:29:45;;;;;;;17.15;3.70;;;14.00;67.50;;;;;;5023746;28;20014;-76
2023/05/29 06:32:11;;;;;;;19.15;3.78;;;13.60;68.00;;;;;;5027901;28;20042;-77
2023/05/29 06:34:36;;;;;;;13.30;3.42;;;13.60;68.90;;;;;;5024668;28;20100;-78
2023/05/29 06:37:02;;;;;;;15.48;3.92;;;13.60;69.40;;;;;;5022649;28;20061;-77
2023/05/29 06:39:28;;;;;;;18.48;4.68;;;13.90;69.10;;;;;;5024084;28;20022;-76
2023/05/29 06:41:53;;;;;;;15.95;4.10;;;13.80;67.80;;;;;;5019128;28;20079;-76
2023/05/29 06:44:19;;;;;;;16.25;4.57;;;13.80;68.60;;;;;;5020401;28;20049;-77
2023/05/29 06:46:45;;;;;;;16.45;3.70;;;14.10;68.10;;;;;;5021981;28;20117;-76
2023/05/29 06:49:10;;;;;;;17.17;4.13;;;14.30;66.70;;;;;;5023743;28;20049;-77
2023/05/29 06:51:36;;;;;;;18.00;4.75;;;14.10;67.20;;;;;;5023599;28;20120;-79
2023/05/29 06:54:02;;;;;;;15.38;4.03;;;14.30;66.10;;;;;;5023232;28;20676;-77
2023/05/29 06:56:28;;;;;;;16.23;5.00;;;14.40;65.90;;;;;;5024476;28;20048;-78
2023/05/29 06:58:53;;;;;;;13.95;3.80;;;14.30;66.00;;;;;;5022329;28;20036;-76
2023/05/29 07:01:19;;;;;;;12.02;3.83;;;14.00;66.30;;;;;;5023137;28;20038;-77
2023/05/29 07:03:46;;;;;;;14.10;4.20;;;14.00;66.40;;;;;;5021374;28;20064;-77
2023/05/29 07:06:12;;;;;;;15.63;4.65;;;14.20;66.30;;;;;;5016995;28;20509;-77
2023/05/29 07:08:37;;;;;;;15.15;4.45;;;14.30;66.60;;;;;;5022060;28;20034;-77
2023/05/29 07:11:03;;;;;;;17.42;4.50;;;14.60;67.00;;;;;;5022146;28;20035;-77
2023/05/29 07:13:29;;;;;;;17.00;4.30;;;14.60;66.80;;;;;;5022145;28;20780;-76
2023/05/29 07:15:54;;;;;;;19.42;4.82;;;14.50;65.20;;;;;;5022931;28;20510;-77
2023/05/29 07:18:20;;;;;;;16.42;4.13;;;14.60;65.70;;;;;;5024709;28;20500;-76
2023/05/29 07:20:46;;;;;;;20.50;5.15;;;14.70;66.50;;;;;;5021690;28;20140;-76
2023/05/29 07:23:11;;;;;;;17.13;4.03;;;14.70;67.00;;;;;;5023023;28;20864;-77
2023/05/29 07:25:37;;;;;;;15.65;4.00;;;14.80;66.50;;;;;;5023775;28;20080;-77
2023/05/29 07:28:03;;;;;;;18.48;4.07;;;15.10;66.60;;;;;;5022578;28;20038;-78
2023/05/29 07:30:29;;;;;;;20.13;4.72;;;15.10;65.80;;;;;;5023102;28;20029;-78
2023/05/29 07:32:54;;;;;;;19.05;4.50;;;14.90;66.60;;;;;;5023046;28;20120;-77
2023/05/29 07:35:20;;;;;;;16.08;4.70;;;15.10;65.50;;;;;;5020501;28;20021;-78
2023/05/29 07:37:47;;;;;;;20.98;4.25;;;15.20;64.20;;;;;;5024585;28;20052;-80
2023/05/29 07:40:13;;;;;;;16.90;4.20;;;15.10;64.50;;;;;;5019330;28;20033;-75
2023/05/29 07:42:39;;;;;;;23.10;4.85;;;15.20;64.30;;;;;;5020601;28;20033;-76
2023/05/29 07:45:05;;;;;;;16.35;4.80;;;15.20;64.00;;;;;;5025539;28;20021;-77
2023/05/29 07:47:31;;;;;;;13.23;4.07;;;15.30;64.20;;;;;;5022376;28;20803;-77
2023/05/29 07:49:56;;;;;;;15.07;4.00;;;15.30;63.30;;;;;;5024612;28;20097;-77
2023/05/29 07:52:22;;;;;;;15.50;4.05;;;15.20;63.60;;;;;;5017873;28;20470;-77
2023/05/29 07:54:48;;;;;;;11.60;3.53;;;15.40;63.40;;;;;;5022806;28;20033;-76
2023/05/29 07:57:13;;;;;;;13.25;4.25;;;15.30;63.10;;;;;;5021234;28;20048;-76
2023/05/29 07:59:42;;;;;;;14.90;3.95;;;15.20;63.00;;;;;;5021471;28;20034;-76
2023/05/29 08:02:08;;;;;;;14.70;3.72;;;15.30;62.80;;;;;;5016607;28;20402;-76
2023/05/29 08:04:34;;;;;;;15.20;3.65;;;15.50;62.50;;;;;;5018154;28;20418;-76
2023/05/29 08:07:03;;;;;;;15.85;4.03;;;15.60;63.50;;;;;;5019427;28;20130;-77
2023/05/29 08:09:29;;;;;;;16.42;3.83;;;15.60;62.20;;;;;;5021899;28;20033;-77
2023/05/29 08:11:55;;;;;;;15.73;4.20;;;15.60;62.10;;;;;;5023078;28;20050;-76
2023/05/29 08:14:20;;;;;;;13.98;3.72;;;15.80;62.30;;;;;;5021683;28;20228;-81
2023/05/29 08:16:46;;;;;;;13.98;3.95;;;16.00;62.10;;;;;;5016187;28;20051;-78
2023/05/29 08:19:12;;;;;;;17.38;4.15;;;16.30;61.70;;;;;;5021707;28;20034;-77
2023/05/29 08:21:37;;;;;;;16.35;4.30;;;16.60;60.90;;;;;;5020806;28;20063;-76
2023/05/29 08:24:07;;;;;;;17.63;4.57;;;16.30;60.40;;;;;;5024334;28;20410;-77
2023/05/29 08:26:32;;;;;;;14.73;4.00;;;16.10;60.90;;;;;;5028170;28;20166;-78
2023/05/29 08:28:58;;;;;;;13.85;4.10;;;16.10;60.30;;;;;;5027224;28;20784;-78
2023/05/29 08:31:27;;;;;;;14.85;4.18;;;16.10;60.40;;;;;;5025852;28;20436;-77
2023/05/29 08:33:53;;;;;;;15.48;3.40;;;16.20;60.10;;;;;;5023857;28;20171;-77
2023/05/29 08:36:22;;;;;;;13.65;3.78;;;16.20;59.30;;;;;;5025513;28;20056;-78
2023/05/29 08:38:49;;;;;;;16.33;4.20;;;16.30;59.50;;;;;;5031222;28;20531;-79
2023/05/29 08:41:24;;;;;;;16.40;4.03;;;16.40;58.70;;;;;;5022989;28;20076;-78
2023/05/29 08:43:52;;;;;;;14.80;4.00;;;16.50;58.40;;;;;;5023440;28;20373;-78
2023/05/29 08:46:19;;;;;;;12.55;3.25;;;16.40;58.60;;;;;;5026198;28;20092;-78
2023/05/29 08:48:49;;;;;;;15.98;3.83;;;16.60;59.60;;;;;;5030677;28;20094;-78
2023/05/29 08:51:20;;;;;;;15.02;4.40;;;16.70;58.10;;;;;;5021099;28;20026;-76
2023/05/29 08:53:47;;;;;;;15.45;3.97;;;16.70;58.90;;;;;;5022337;28;20764;-76
2023/05/29 08:56:12;;;;;;;13.10;3.80;;;16.50;58.80;;;;;;5023785;28;20084;-82
2023/05/29 08:58:39;;;;;;;15.52;4.00;;;16.60;57.70;;;;;;5024565;28;20471;-78
2023/05/29 09:01:05;;;;;;;13.18;4.05;;;16.70;58.10;;;;;;5021985;28;20090;-78
2023/05/29 09:03:31;;;;;;;16.65;3.60;;;16.70;58.50;;;;;;5022848;28;20025;-77
2023/05/29 09:06:03;;;;;;;15.02;3.67;;;16.80;56.90;;;;;;5020502;28;20111;-77
2023/05/29 09:08:30;;;;;;;14.38;4.10;;;16.60;57.60;;;;;;5022022;28;20381;-79
2023/05/29 09:10:57;;;;;;;13.52;4.00;;;16.60;57.30;;;;;;5022909;28;20033;-76
2023/05/29 09:13:23;;;;;;;13.90;4.15;;;16.70;58.00;;;;;;5024239;28;20060;-79
2023/05/29 09:15:49;;;;;;;18.60;5.32;;;16.60;58.10;;;;;;5027240;28;20034;-85
2023/05/29 09:18:17;;;;;;;18.50;4.75;;;16.60;57.30;;;;;;5016064;28;20052;-78
2023/05/29 09:20:44;;;;;;;14.15;4.28;;;16.70;56.80;;;;;;5028952;28;20018;-78
2023/05/29 09:23:10;;;;;;;14.02;3.95;;;16.70;57.10;;;;;;5023461;28;20441;-76
2023/05/29 09:25:45;;;;;;;15.13;4.00;;;16.80;57.50;;;;;;5026426;28;20449;-77
2023/05/29 09:28:10;;;;;;;12.57;3.78;;;17.00;57.30;;;;;;5024103;28;20073;-78
2023/05/29 09:30:41;;;;;;;12.73;4.03;;;17.10;56.70;;;;;;5025656;28;20064;-82
2023/05/29 09:33:12;;;;;;;17.80;4.40;;;17.40;56.60;;;;;;5020627;28;20044;-82
2023/05/29 09:35:44;;;;;;;17.92;4.40;;;17.10;56.70;;;;;;5019716;28;20033;-78
2023/05/29 09:38:18;;;;;;;18.50;4.97;;;17.40;57.60;;;;;;5021308;28;20030;-77
2023/05/29 09:40:46;;;;;;;21.65;4.20;;;17.30;56.70;;;;;;5024678;28;20476;-78
2023/05/29 09:43:17;;;;;;;18.25;4.43;;;17.50;56.50;;;;;;5024719;28;20043;-77
2023/05/29 09:45:48;;;;;;;16.95;4.90;;;17.30;56.20;;;;;;5029621;28;20048;-83
2023/05/29 09:48:16;;;;;;;16.38;4.25;;;17.20;57.00;;;;;;5023612;28;20049;-79
2023/05/29 09:50:49;;;;;;;19.77;5.80;;;17.40;56.90;;;;;;5028860;28;20017;-80
2023/05/29 09:53:27;;;;;;;16.42;3.97;;;17.40;56.10;;;;;;5028331;28;20063;-77
2023/05/29 09:55:54;;;;;;;15.70;4.50;;;17.60;56.90;;;;;;5021974;28;20021;-77
2023/05/29 09:58:23;;;;;;;18.30;4.60;;;17.40;56.90;;;;;;5021285;28;20490;-79
2023/05/29 10:00:51;;;;;;;13.68;3.85;;;17.40;57.00;;;;;;5027974;28;20051;-80
2023/05/29 10:03:17;;;;;;;23.42;4.80;;;17.60;56.90;;;;;;5028890;28;20129;-78
2023/05/29 10:05:48;;;;;;;17.45;4.15;;;17.70;55.70;;;;;;5025982;28;20029;-77
2023/05/29 10:08:17;;;;;;;16.17;4.18;;;17.90;55.60;;;;;;5029523;28;20046;-77
2023/05/29 10:11:00;;;;;;;15.70;4.45;;;18.10;54.80;;;;;;5028455;28;20117;-77
2023/05/29 10:13:31;;;;;;;20.20;5.03;;;17.80;55.60;;;;;;5027980;28;20033;-80
2023/05/29 10:15:58;;;;;;;13.40;4.03;;;17.70;56.30;;;;;;5024185;28;20037;-78
2023/05/29 10:18:29;;;;;;;14.20;4.40;;;18.20;54.70;;;;;;5018010;28;20552;-80
2023/05/29 10:20:58;;;;;;;16.55;4.05;;;18.60;53.60;;;;;;5019784;28;20036;-79
2023/05/29 10:23:25;;;;;;;14.10;4.53;;;18.70;53.90;;;;;;5023857;28;20026;-80
2023/05/29 10:26:04;;;;;;;15.75;4.70;;;18.60;52.70;;;;;;5024848;28;20437;-79
2023/05/29 10:28:31;;;;;;;10.98;3.60;;;18.80;52.80;;;;;;5021472;28;20022;-77
2023/05/29 10:31:11;;;;;;;13.90;4.43;;;18.50;53.70;;;;;;5023576;28;20021;-80
2023/05/29 10:34:04;;;;;;;16.00;4.53;;;18.30;54.60;;;;;;5022824;28;20537;-77
2023/05/29 10:36:38;;;;;;;16.73;5.43;;;18.40;53.20;;;;;;5024667;28;20402;-77
2023/05/29 10:39:04;;;;;;;18.02;5.05;;;18.20;54.00;;;;;;5018946;28;20053;-82
2023/05/29 10:41:32;;;;;;;18.27;4.97;;;18.20;53.60;;;;;;5023992;28;20049;-77
2023/05/29 10:44:00;;;;;;;16.80;4.45;;;18.10;55.10;;;;;;5018203;28;20079;-76
2023/05/29 10:46:48;;;;;;;15.65;4.00;;;18.00;54.00;;;;;;5025087;28;20592;-76
2023/05/29 10:49:18;;;;;;;18.98;4.50;;;18.30;55.00;;;;;;5021907;28;20553;-76
2023/05/29 10:51:44;;;;;;;17.98;4.60;;;18.30;53.70;;;;;;5020438;28;20459;-76
2023/05/29 10:54:11;;;;;;;16.02;4.68;;;18.30;55.90;;;;;;5024959;28;20070;-77
2023/05/29 10:56:37;;;;;;;16.35;4.53;;;18.50;52.80;;;;;;5020707;28;20045;-76
2023/05/29 10:59:03;;;;;;;16.70;4.45;;;18.30;54.50;;;;;;5020771;28;20022;-78
2023/05/29 11:01:30;;;;;;;13.25;4.10;;;18.50;53.20;;;;;;5023972;28;20029;-76
2023/05/29 11:04:17;;;;;;;12.82;4.20;;;18.90;54.00;;;;;;5024232;28;20057;-76
2023/05/29 11:06:44;;;;;;;12.95;3.83;;;18.90;51.60;;;;;;5024743;28;20038;-76
2023/05/29 11:09:37;;;;;;;14.02;4.25;;;18.50;54.10;;;;;;5015824;28;20136;-77
2023/05/29 11:12:14;;;;;;;17.15;4.35;;;18.80;51.80;;;;;;5021533;28;20053;-76
2023/05/29 11:14:47;;;;;;;17.77;4.28;;;18.60;52.20;;;;;;5018618;28;20049;-77
2023/05/29 11:17:36;;;;;;;15.40;3.90;;;18.80;52.60;;;;;;5016418;28;20119;-76
2023/05/29 11:20:06;;;;;;;12.88;4.20;;;19.40;52.40;;;;;;5022672;28;20470;-76
2023/05/29 11:22:50;;;;;;;14.45;4.68;;;19.70;50.60;;;;;;5025274;28;20450;-80
2023/05/29 11:25:15;;;;;;;11.85;4.28;;;19.00;51.20;;;;;;5024466;28;20133;-76
2023/05/29 11:27:45;;;;;;;14.60;3.38;;;18.70;53.00;;;;;;5021036;28;20124;-80
2023/05/29 11:30:11;;;;;;;11.32;3.95;;;18.80;51.50;;;;;;5019804;28;20068;-78
2023/05/29 11:32:39;;;;;;;12.27;4.50;;;19.10;52.30;;;;;;5018437;28;20059;-77
2023/05/29 11:35:08;;;;;;;12.93;3.70;;;19.20;50.70;;;;;;5022627;28;20036;-77
2023/05/29 11:37:44;;;;;;;11.90;3.90;;;19.00;51.70;;;;;;5021993;28;20477;-77
2023/05/29 11:40:10;;;;;;;15.07;4.50;;;19.10;51.40;;;;;;5025908;28;20477;-75
2023/05/29 11:42:45;;;;;;;16.55;4.35;;;19.10;51.90;;;;;;5022342;28;20034;-74
2023/05/29 11:45:11;;;;;;;12.57;3.72;;;19.30;51.10;;;;;;5013490;28;20546;-75
2023/05/29 11:47:56;;;;;;;13.75;3.90;;;19.20;51.40;;;;;;5010183;28;20124;-76
2023/05/29 11:50:27;;;;;;;13.48;3.58;;;19.50;51.90;;;;;;5015641;28;20022;-76
2023/05/29 11:52:53;;;;;;;15.80;4.63;;;19.60;50.60;;;;;;5012666;28;20041;-75
2023/05/29 11:55:20;;;;;;;12.70;3.90;;;19.70;51.30;;;;;;5012822;28;20029;-75
2023/05/29 11:57:50;;;;;;;10.60;3.63;;;19.90;51.10;;;;;;5010587;28;20120;-78
2023/05/29 12:00:18;;;;;;;14.88;5.13;;;19.80;51.00;;;;;;5014097;28;20662;-76
2023/05/29 12:02:46;;;;;;;13.45;4.28;;;19.80;49.70;;;;;;5014935;28;20757;-75
2023/05/29 12:05:18;;;;;;;11.90;3.30;;;19.70;49.90;;;;;;5011509;28;20036;-77
2023/05/29 12:07:49;;;;;;;14.77;3.80;;;19.70;50.50;;;;;;5011956;28;20478;-76
2023/05/29 12:10:16;;;;;;;13.23;4.03;;;19.70;49.20;;;;;;5010583;28;20030;-76
2023/05/29 12:12:42;;;;;;;13.45;4.18;;;19.70;50.20;;;;;;5010907;28;20119;-76
2023/05/29 12:15:09;;;;;;;14.75;3.78;;;19.50;50.20;;;;;;5025841;28;20021;-76
2023/05/29 12:17:36;;;;;;;12.02;3.65;;;19.90;51.70;;;;;;5019318;28;20048;-74
2023/05/29 12:20:08;;;;;;;12.70;4.18;;;19.90;49.40;;;;;;5021770;28;20038;-76
2023/05/29 12:22:36;;;;;;;15.18;4.40;;;19.60;50.30;;;;;;5016144;28;20060;-77
2023/05/29 12:25:11;;;;;;;14.07;4.20;;;19.60;50.30;;;;;;5017741;28;20041;-79
2023/05/29 12:27:42;;;;;;;14.93;3.95;;;20.00;50.60;;;;;;5013893;28;20049;-80
2023/05/29 12:30:16;;;;;;;11.98;4.28;;;19.90;50.40;;;;;;5007359;28;20030;-77
2023/05/29 12:32:45;;;;;;;11.35;3.58;;;19.80;50.00;;;;;;5023606;28;20018;-77
2023/05/29 12:35:20;;;;;;;13.27;4.07;;;20.00;50.20;;;;;;5022028;28;20052;-76
2023/05/29 12:38:05;;;;;;;11.25;4.05;;;20.00;49.90;;;;;;5020544;28;20121;-75
2023/05/29 12:40:34;;;;;;;13.45;4.35;;;20.00;49.10;;;;;;5023702;28;20101;-75